Terminal Aerodrome Forecast
Issued by NWS Wilmington, NC

Home | Current Version | Previous Version | Text Only | Print | Product List | Glossary On
Versions: 1 2 3 4 5 6 7 8 9 10 11 12 13 14 15
497
FTUS42 KILM 300525
TAFILM
TAF
KILM 300525Z 3006/0106 16003KT P6SM VCSH SCT020 SCT080
     FM301000 17003KT 6SM -SHRA BKN020
     FM301500 16005KT P6SM VCTS BKN050CB
     FM010000 20005KT P6SM SKC=

USA.gov is the U.S. government's official web portal to all federal, state and local government web resources and services.